sensor_id;sensor_type;location;lat;lon;timestamp;temperature;humidity
29731;DHT22;16639;51.488;0.152;2022-11-20T00:01:21;8.20;99.90
29731;DHT22;16639;51.488;0.152;2022-11-20T00:03:51;8.30;99.90
29731;DHT22;16639;51.488;0.152;2022-11-20T00:06:19;8.30;99.90
29731;DHT22;16639;51.488;0.152;2022-11-20T00:08:47;8.30;99.90
29731;DHT22;16639;51.488;0.152;2022-11-20T00:11:17;8.30;99.90
29731;DHT22;16639;51.488;0.152;2022-11-20T00:13:46;8.30;99.90
29731;DHT22;16639;51.488;0.152;2022-11-20T00:16:17;8.30;99.90
29731;DHT22;16639;51.488;0.152;2022-11-20T00:18:45;8.30;99.90
29731;DHT22;16639;51.488;0.152;2022-11-20T00:21:14;8.30;99.90
29731;DHT22;16639;51.488;0.152;2022-11-20T00:23:42;7.70;99.90
29731;DHT22;16639;51.488;0.152;2022-11-20T00:26:12;8.20;99.90
29731;DHT22;16639;51.488;0.152;2022-11-20T00:28:41;8.20;99.90
29731;DHT22;16639;51.488;0.152;2022-11-20T00:31:14;8.30;99.90
29731;DHT22;16639;51.488;0.152;2022-11-20T00:33:42;8.20;99.90
29731;DHT22;16639;51.488;0.152;2022-11-20T00:36:22;8.20;99.90
29731;DHT22;16639;51.488;0.152;2022-11-20T00:38:54;8.20;99.90
29731;DHT22;16639;51.488;0.152;2022-11-20T00:41:21;8.10;99.90
29731;DHT22;16639;51.488;0.152;2022-11-20T00:43:49;8.00;99.90
29731;DHT22;16639;51.488;0.152;2022-11-20T00:46:20;8.10;99.90
29731;DHT22;16639;51.488;0.152;2022-11-20T00:48:48;8.10;99.90
29731;DHT22;16639;51.488;0.152;2022-11-20T00:51:22;8.00;99.90
29731;DHT22;16639;51.488;0.152;2022-11-20T00:53:50;8.00;99.90
29731;DHT22;16639;51.488;0.152;2022-11-20T00:56:19;8.00;99.90
29731;DHT22;16639;51.488;0.152;2022-11-20T00:58:47;8.00;99.90
29731;DHT22;16639;51.488;0.152;2022-11-20T01:01:22;8.50;99.90
29731;DHT22;16639;51.488;0.152;2022-11-20T01:03:56;7.90;99.90
29731;DHT22;16639;51.488;0.152;2022-11-20T01:06:26;7.90;99.90
29731;DHT22;16639;51.488;0.152;2022-11-20T01:08:57;7.90;99.90
29731;DHT22;16639;51.488;0.152;2022-11-20T01:11:30;7.80;99.90
29731;DHT22;16639;51.488;0.152;2022-11-20T01:13:58;7.80;99.90
29731;DHT22;16639;51.488;0.152;2022-11-20T01:16:31;7.90;99.90
29731;DHT22;16639;51.488;0.152;2022-11-20T01:19:01;7.80;99.90
29731;DHT22;16639;51.488;0.152;2022-11-20T01:21:38;7.90;99.90
29731;DHT22;16639;51.488;0.152;2022-11-20T01:24:07;7.90;99.90
29731;DHT22;16639;51.488;0.152;2022-11-20T01:26:36;7.90;99.90
29731;DHT22;16639;51.488;0.152;2022-11-20T01:29:04;7.90;99.90
29731;DHT22;16639;51.488;0.152;2022-11-20T01:31:34;7.90;99.90
29731;DHT22;16639;51.488;0.152;2022-11-20T01:34:08;7.90;99.90
29731;DHT22;16639;51.488;0.152;2022-11-20T01:36:37;8.00;99.90
29731;DHT22;16639;51.488;0.152;2022-11-20T01:39:16;7.90;99.90
29731;DHT22;16639;51.488;0.152;2022-11-20T01:41:45;8.00;99.90
29731;DHT22;16639;51.488;0.152;2022-11-20T01:44:56;8.00;99.90
29731;DHT22;16639;51.488;0.152;2022-11-20T01:47:32;7.90;99.90
29731;DHT22;16639;51.488;0.152;2022-11-20T01:50:23;7.90;99.90
29731;DHT22;16639;51.488;0.152;2022-11-20T01:52:55;7.90;99.90
29731;DHT22;16639;51.488;0.152;2022-11-20T01:55:30;7.90;99.90
29731;DHT22;16639;51.488;0.152;2022-11-20T01:57:59;8.00;99.90
29731;DHT22;16639;51.488;0.152;2022-11-20T02:00:26;8.00;99.90
29731;DHT22;16639;51.488;0.152;2022-11-20T02:03:00;8.00;99.90
29731;DHT22;16639;51.488;0.152;2022-11-20T02:08:02;8.00;99.90
29731;DHT22;16639;51.488;0.152;2022-11-20T02:10:31;8.00;99.90
29731;DHT22;16639;51.488;0.152;2022-11-20T02:12:59;8.00;99.90
29731;DHT22;16639;51.488;0.152;2022-11-20T02:15:45;8.00;99.90
29731;DHT22;16639;51.488;0.152;2022-11-20T02:18:15;8.00;99.90
29731;DHT22;16639;51.488;0.152;2022-11-20T02:20:47;8.00;99.90
29731;DHT22;16639;51.488;0.152;2022-11-20T02:25:52;8.00;99.90
29731;DHT22;16639;51.488;0.152;2022-11-20T02:28:20;8.10;99.90
29731;DHT22;16639;51.488;0.152;2022-11-20T02:30:47;8.00;99.90
29731;DHT22;16639;51.488;0.152;2022-11-20T02:33:15;8.00;99.90
29731;DHT22;16639;51.488;0.152;2022-11-20T02:35:46;8.00;99.90
29731;DHT22;16639;51.488;0.152;2022-11-20T02:38:14;8.00;99.90
29731;DHT22;16639;51.488;0.152;2022-11-20T02:40:42;8.00;99.90
29731;DHT22;16639;51.488;0.152;2022-11-20T02:43:10;8.10;99.90
29731;DHT22;16639;51.488;0.152;2022-11-20T02:45:41;8.10;99.90
29731;DHT22;16639;51.488;0.152;2022-11-20T02:48:12;8.10;99.90
29731;DHT22;16639;51.488;0.152;2022-11-20T02:50:40;8.10;99.90
29731;DHT22;16639;51.488;0.152;2022-11-20T02:53:07;8.10;99.90
29731;DHT22;16639;51.488;0.152;2022-11-20T02:55:35;8.10;99.90
29731;DHT22;16639;51.488;0.152;2022-11-20T02:58:03;8.10;99.90
29731;DHT22;16639;51.488;0.152;2022-11-20T03:00:30;8.40;99.90
29731;DHT22;16639;51.488;0.152;2022-11-20T03:02:59;8.10;99.90
29731;DHT22;16639;51.488;0.152;2022-11-20T03:05:26;8.20;99.90
29731;DHT22;16639;51.488;0.152;2022-11-20T03:07:53;8.70;99.90
29731;DHT22;16639;51.488;0.152;2022-11-20T03:10:20;8.20;99.90
29731;DHT22;16639;51.488;0.152;2022-11-20T03:12:53;8.20;99.90
29731;DHT22;16639;51.488;0.152;2022-11-20T03:15:23;8.20;99.90
29731;DHT22;16639;51.488;0.152;2022-11-20T03:17:54;8.10;99.90
29731;DHT22;16639;51.488;0.152;2022-11-20T03:20:22;8.20;99.90
29731;DHT22;16639;51.488;0.152;2022-11-20T03:22:50;8.30;99.90
29731;DHT22;16639;51.488;0.152;2022-11-20T03:25:17;8.20;99.90
29731;DHT22;16639;51.488;0.152;2022-11-20T03:27:44;8.30;99.90
29731;DHT22;16639;51.488;0.152;2022-11-20T03:30:12;8.30;99.90
29731;DHT22;16639;51.488;0.152;2022-11-20T03:32:39;8.30;99.90
29731;DHT22;16639;51.488;0.152;2022-11-20T03:35:07;8.30;99.90
29731;DHT22;16639;51.488;0.152;2022-11-20T03:37:34;8.30;99.90
29731;DHT22;16639;51.488;0.152;2022-11-20T03:40:03;8.30;99.90
29731;DHT22;16639;51.488;0.152;2022-11-20T03:42:30;8.30;99.90
29731;DHT22;16639;51.488;0.152;2022-11-20T03:45:24;8.20;99.90
29731;DHT22;16639;51.488;0.152;2022-11-20T03:47:51;8.30;99.90
29731;DHT22;16639;51.488;0.152;2022-11-20T03:50:19;8.30;99.90
29731;DHT22;16639;51.488;0.152;2022-11-20T03:52:46;8.20;99.90
29731;DHT22;16639;51.488;0.152;2022-11-20T03:55:13;8.60;99.90
29731;DHT22;16639;51.488;0.152;2022-11-20T03:57:40;8.30;99.90
29731;DHT22;16639;51.488;0.152;2022-11-20T04:00:08;8.30;99.90
29731;DHT22;16639;51.488;0.152;2022-11-20T04:02:36;8.30;99.90
29731;DHT22;16639;51.488;0.152;2022-11-20T04:05:03;8.30;99.90
29731;DHT22;16639;51.488;0.152;2022-11-20T04:07:31;8.30;99.90
29731;DHT22;16639;51.488;0.152;2022-11-20T04:09:58;8.30;99.90
29731;DHT22;16639;51.488;0.152;2022-11-20T04:12:25;8.30;99.90
29731;DHT22;16639;51.488;0.152;2022-11-20T04:14:53;10.30;99.90
29731;DHT22;16639;51.488;0.152;2022-11-20T04:17:20;8.30;99.90
29731;DHT22;16639;51.488;0.152;2022-11-20T04:19:47;8.30;99.90
29731;DHT22;16639;51.488;0.152;2022-11-20T04:22:15;8.30;99.90
29731;DHT22;16639;51.488;0.152;2022-11-20T04:24:42;8.50;99.90
29731;DHT22;16639;51.488;0.152;2022-11-20T04:27:09;8.40;99.90
29731;DHT22;16639;51.488;0.152;2022-11-20T04:29:37;8.40;99.90
29731;DHT22;16639;51.488;0.152;2022-11-20T04:32:04;8.30;99.90
29731;DHT22;16639;51.488;0.152;2022-11-20T04:34:32;8.30;99.90
29731;DHT22;16639;51.488;0.152;2022-11-20T04:36:59;8.40;99.90
29731;DHT22;16639;51.488;0.152;2022-11-20T04:39:27;8.30;99.90
29731;DHT22;16639;51.488;0.152;2022-11-20T04:41:54;8.40;99.90
29731;DHT22;16639;51.488;0.152;2022-11-20T04:44:40;8.40;99.90
29731;DHT22;16639;51.488;0.152;2022-11-20T04:47:07;8.40;99.90
29731;DHT22;16639;51.488;0.152;2022-11-20T04:49:34;8.40;99.90
29731;DHT22;16639;51.488;0.152;2022-11-20T04:52:02;8.40;99.90
29731;DHT22;16639;51.488;0.152;2022-11-20T04:54:29;8.40;99.90
29731;DHT22;16639;51.488;0.152;2022-11-20T04:56:57;8.40;99.90
29731;DHT22;16639;51.488;0.152;2022-11-20T04:59:24;8.50;99.90
29731;DHT22;16639;51.488;0.152;2022-11-20T05:01:52;8.30;99.90
29731;DHT22;16639;51.488;0.152;2022-11-20T05:04:19;8.30;99.90
29731;DHT22;16639;51.488;0.152;2022-11-20T05:06:46;8.30;99.90
29731;DHT22;16639;51.488;0.152;2022-11-20T05:09:14;8.30;99.90
29731;DHT22;16639;51.488;0.152;2022-11-20T05:11:41;8.50;99.90
29731;DHT22;16639;51.488;0.152;2022-11-20T05:14:08;8.40;99.90
29731;DHT22;16639;51.488;0.152;2022-11-20T05:16:36;8.40;99.90
29731;DHT22;16639;51.488;0.152;2022-11-20T05:19:03;8.40;99.90
29731;DHT22;16639;51.488;0.152;2022-11-20T05:21:31;8.30;99.90
29731;DHT22;16639;51.488;0.152;2022-11-20T05:23:59;8.40;99.90
29731;DHT22;16639;51.488;0.152;2022-11-20T05:26:26;8.30;99.90
29731;DHT22;16639;51.488;0.152;2022-11-20T05:28:54;8.40;99.90
29731;DHT22;16639;51.488;0.152;2022-11-20T05:31:24;8.30;99.90
29731;DHT22;16639;51.488;0.152;2022-11-20T05:33:55;8.30;99.90
29731;DHT22;16639;51.488;0.152;2022-11-20T05:36:23;8.30;99.90
29731;DHT22;16639;51.488;0.152;2022-11-20T05:38:51;8.70;99.90
29731;DHT22;16639;51.488;0.152;2022-11-20T05:41:24;8.30;99.90
29731;DHT22;16639;51.488;0.152;2022-11-20T05:43:51;8.40;99.90
29731;DHT22;16639;51.488;0.152;2022-11-20T05:46:20;8.30;99.90
29731;DHT22;16639;51.488;0.152;2022-11-20T05:48:55;8.40;99.90
29731;DHT22;16639;51.488;0.152;2022-11-20T05:51:23;8.40;99.90
29731;DHT22;16639;51.488;0.152;2022-11-20T05:53:51;8.40;99.90
29731;DHT22;16639;51.488;0.152;2022-11-20T05:56:20;8.40;99.90
29731;DHT22;16639;51.488;0.152;2022-11-20T05:58:48;8.30;99.90
29731;DHT22;16639;51.488;0.152;2022-11-20T06:01:21;8.40;99.90
29731;DHT22;16639;51.488;0.152;2022-11-20T06:03:50;8.30;99.90
29731;DHT22;16639;51.488;0.152;2022-11-20T06:06:18;8.30;99.90
29731;DHT22;16639;51.488;0.152;2022-11-20T06:08:46;8.30;99.90
29731;DHT22;16639;51.488;0.152;2022-11-20T06:11:14;8.30;99.90
29731;DHT22;16639;51.488;0.152;2022-11-20T06:13:42;8.20;99.90
29731;DHT22;16639;51.488;0.152;2022-11-20T06:16:11;8.30;99.90
29731;DHT22;16639;51.488;0.152;2022-11-20T06:18:39;8.30;99.90
29731;DHT22;16639;51.488;0.152;2022-11-20T06:21:12;8.40;99.90
29731;DHT22;16639;51.488;0.152;2022-11-20T06:23:40;8.40;99.90
29731;DHT22;16639;51.488;0.152;2022-11-20T06:26:10;8.40;99.90
29731;DHT22;16639;51.488;0.152;2022-11-20T06:28:38;8.40;99.90
29731;DHT22;16639;51.488;0.152;2022-11-20T06:31:06;8.40;99.90
29731;DHT22;16639;51.488;0.152;2022-11-20T06:33:34;9.30;99.90
29731;DHT22;16639;51.488;0.152;2022-11-20T06:36:02;8.40;99.90
29731;DHT22;16639;51.488;0.152;2022-11-20T06:38:37;8.50;99.90
29731;DHT22;16639;51.488;0.152;2022-11-20T06:41:05;8.40;99.90
29731;DHT22;16639;51.488;0.152;2022-11-20T06:43:33;8.40;99.90
29731;DHT22;16639;51.488;0.152;2022-11-20T06:46:00;8.40;99.90
29731;DHT22;16639;51.488;0.152;2022-11-20T06:48:28;8.40;99.90
29731;DHT22;16639;51.488;0.152;2022-11-20T06:50:56;8.50;99.90
29731;DHT22;16639;51.488;0.152;2022-11-20T06:53:24;8.80;99.90
29731;DHT22;16639;51.488;0.152;2022-11-20T06:55:52;8.50;99.90
29731;DHT22;16639;51.488;0.152;2022-11-20T06:58:22;8.60;99.90
29731;DHT22;16639;51.488;0.152;2022-11-20T07:00:49;8.30;99.90
29731;DHT22;16639;51.488;0.152;2022-11-20T07:03:17;8.60;99.90
29731;DHT22;16639;51.488;0.152;2022-11-20T07:05:44;8.70;99.90
29731;DHT22;16639;51.488;0.152;2022-11-20T07:08:12;8.60;99.90
29731;DHT22;16639;51.488;0.152;2022-11-20T07:10:40;8.60;99.90
29731;DHT22;16639;51.488;0.152;2022-11-20T07:13:07;8.70;99.90
29731;DHT22;16639;51.488;0.152;2022-11-20T07:15:34;8.60;99.90
29731;DHT22;16639;51.488;0.152;2022-11-20T07:18:02;8.70;99.90
29731;DHT22;16639;51.488;0.152;2022-11-20T07:20:29;8.70;99.90
29731;DHT22;16639;51.488;0.152;2022-11-20T07:22:57;8.70;99.90
29731;DHT22;16639;51.488;0.152;2022-11-20T07:25:26;8.70;99.90
29731;DHT22;16639;51.488;0.152;2022-11-20T07:27:58;8.70;99.90
29731;DHT22;16639;51.488;0.152;2022-11-20T07:30:29;8.80;99.90
29731;DHT22;16639;51.488;0.152;2022-11-20T07:32:57;8.80;99.90
29731;DHT22;16639;51.488;0.152;2022-11-20T07:35:25;8.80;99.90
29731;DHT22;16639;51.488;0.152;2022-11-20T07:37:52;8.40;99.90
29731;DHT22;16639;51.488;0.152;2022-11-20T07:40:20;8.90;99.90
29731;DHT22;16639;51.488;0.152;2022-11-20T07:42:48;8.90;99.90
29731;DHT22;16639;51.488;0.152;2022-11-20T07:45:17;8.90;99.90
29731;DHT22;16639;51.488;0.152;2022-11-20T07:47:44;9.00;99.90
29731;DHT22;16639;51.488;0.152;2022-11-20T07:50:12;9.00;99.90
29731;DHT22;16639;51.488;0.152;2022-11-20T07:52:40;9.00;99.90
29731;DHT22;16639;51.488;0.152;2022-11-20T07:55:08;9.00;99.90
29731;DHT22;16639;51.488;0.152;2022-11-20T07:57:36;9.00;99.90
29731;DHT22;16639;51.488;0.152;2022-11-20T08:00:04;8.90;99.90
29731;DHT22;16639;51.488;0.152;2022-11-20T08:02:32;8.90;99.90
29731;DHT22;16639;51.488;0.152;2022-11-20T08:04:59;8.90;99.90
29731;DHT22;16639;51.488;0.152;2022-11-20T08:07:27;8.80;99.90
29731;DHT22;16639;51.488;0.152;2022-11-20T08:09:54;8.90;99.90
29731;DHT22;16639;51.488;0.152;2022-11-20T08:12:21;8.90;99.90
29731;DHT22;16639;51.488;0.152;2022-11-20T08:15:08;9.00;99.90
29731;DHT22;16639;51.488;0.152;2022-11-20T08:17:39;8.90;99.90
29731;DHT22;16639;51.488;0.152;2022-11-20T08:20:07;8.90;99.90
29731;DHT22;16639;51.488;0.152;2022-11-20T08:22:34;8.90;99.90
29731;DHT22;16639;51.488;0.152;2022-11-20T08:25:02;8.90;99.90
29731;DHT22;16639;51.488;0.152;2022-11-20T08:27:31;8.90;99.90
29731;DHT22;16639;51.488;0.152;2022-11-20T08:29:59;8.90;99.90
29731;DHT22;16639;51.488;0.152;2022-11-20T08:32:26;8.90;99.90
29731;DHT22;16639;51.488;0.152;2022-11-20T08:34:53;8.90;99.90
29731;DHT22;16639;51.488;0.152;2022-11-20T08:37:20;9.00;99.90
29731;DHT22;16639;51.488;0.152;2022-11-20T08:39:48;9.00;99.90
29731;DHT22;16639;51.488;0.152;2022-11-20T08:42:15;9.10;99.90
29731;DHT22;16639;51.488;0.152;2022-11-20T08:44:42;9.10;99.90
29731;DHT22;16639;51.488;0.152;2022-11-20T08:47:10;9.10;99.90
29731;DHT22;16639;51.488;0.152;2022-11-20T08:49:37;9.10;99.90
29731;DHT22;16639;51.488;0.152;2022-11-20T08:52:04;9.10;99.90
29731;DHT22;16639;51.488;0.152;2022-11-20T08:54:32;9.20;99.90
29731;DHT22;16639;51.488;0.152;2022-11-20T08:56:59;9.10;99.90
29731;DHT22;16639;51.488;0.152;2022-11-20T08:59:27;9.10;99.90
29731;DHT22;16639;51.488;0.152;2022-11-20T09:02:14;9.10;99.90
29731;DHT22;16639;51.488;0.152;2022-11-20T09:04:42;9.20;99.90
29731;DHT22;16639;51.488;0.152;2022-11-20T09:07:09;9.20;99.90
29731;DHT22;16639;51.488;0.152;2022-11-20T09:09:37;8.90;99.90
29731;DHT22;16639;51.488;0.152;2022-11-20T09:12:04;9.30;99.90
29731;DHT22;16639;51.488;0.152;2022-11-20T09:14:31;9.30;99.90
29731;DHT22;16639;51.488;0.152;2022-11-20T09:16:59;9.30;99.90
29731;DHT22;16639;51.488;0.152;2022-11-20T09:19:26;9.30;99.90
29731;DHT22;16639;51.488;0.152;2022-11-20T09:22:02;9.20;99.90
29731;DHT22;16639;51.488;0.152;2022-11-20T09:24:29;9.10;99.90
29731;DHT22;16639;51.488;0.152;2022-11-20T09:26:57;9.10;99.90
29731;DHT22;16639;51.488;0.152;2022-11-20T09:29:24;9.10;99.90
29731;DHT22;16639;51.488;0.152;2022-11-20T09:31:51;9.90;99.90
29731;DHT22;16639;51.488;0.152;2022-11-20T09:34:19;9.00;99.90
29731;DHT22;16639;51.488;0.152;2022-11-20T09:36:46;9.10;99.90
29731;DHT22;16639;51.488;0.152;2022-11-20T09:39:13;9.10;99.90
29731;DHT22;16639;51.488;0.152;2022-11-20T09:44:23;9.00;99.90
29731;DHT22;16639;51.488;0.152;2022-11-20T09:49:52;8.90;99.90
29731;DHT22;16639;51.488;0.152;2022-11-20T09:55:08;8.90;99.90
29731;DHT22;16639;51.488;0.152;2022-11-20T09:57:40;9.10;99.90
29731;DHT22;16639;51.488;0.152;2022-11-20T10:00:13;8.90;99.90
29731;DHT22;16639;51.488;0.152;2022-11-20T10:02:48;8.90;99.90
29731;DHT22;16639;51.488;0.152;2022-11-20T10:11:24;8.90;99.90
29731;DHT22;16639;51.488;0.152;2022-11-20T10:19:51;9.00;99.90
29731;DHT22;16639;51.488;0.152;2022-11-20T10:25:18;9.00;99.90
29731;DHT22;16639;51.488;0.152;2022-11-20T10:27:56;9.00;99.90
29731;DHT22;16639;51.488;0.152;2022-11-20T10:30:27;9.10;99.90
29731;DHT22;16639;51.488;0.152;2022-11-20T10:33:11;9.00;99.90
29731;DHT22;16639;51.488;0.152;2022-11-20T10:35:47;9.00;99.90
29731;DHT22;16639;51.488;0.152;2022-11-20T10:38:39;9.10;99.90
29731;DHT22;16639;51.488;0.152;2022-11-20T10:41:23;9.10;99.90
29731;DHT22;16639;51.488;0.152;2022-11-20T10:44:05;9.10;99.90
29731;DHT22;16639;51.488;0.152;2022-11-20T10:46:43;9.20;99.90
29731;DHT22;16639;51.488;0.152;2022-11-20T10:49:16;9.20;99.90
29731;DHT22;16639;51.488;0.152;2022-11-20T10:56:56;9.20;99.90
29731;DHT22;16639;51.488;0.152;2022-11-20T11:02:21;9.30;99.90
29731;DHT22;16639;51.488;0.152;2022-11-20T11:04:53;9.30;99.90
29731;DHT22;16639;51.488;0.152;2022-11-20T11:07:24;9.30;99.90
29731;DHT22;16639;51.488;0.152;2022-11-20T11:09:54;9.30;99.90
29731;DHT22;16639;51.488;0.152;2022-11-20T11:12:24;9.30;99.90
29731;DHT22;16639;51.488;0.152;2022-11-20T11:14:54;9.30;99.90
29731;DHT22;16639;51.488;0.152;2022-11-20T11:20:04;9.40;99.90
29731;DHT22;16639;51.488;0.152;2022-11-20T11:22:34;9.40;99.90
29731;DHT22;16639;51.488;0.152;2022-11-20T11:25:02;9.40;99.90
29731;DHT22;16639;51.488;0.152;2022-11-20T11:27:29;9.40;99.90
29731;DHT22;16639;51.488;0.152;2022-11-20T11:30:13;8.90;99.90
29731;DHT22;16639;51.488;0.152;2022-11-20T11:32:41;9.30;99.90
29731;DHT22;16639;51.488;0.152;2022-11-20T11:35:25;10.10;99.90
29731;DHT22;16639;51.488;0.152;2022-11-20T11:38:10;9.40;99.90
29731;DHT22;16639;51.488;0.152;2022-11-20T11:40:40;9.40;99.90
29731;DHT22;16639;51.488;0.152;2022-11-20T11:43:20;9.40;99.90
29731;DHT22;16639;51.488;0.152;2022-11-20T11:54:51;9.90;99.90
29731;DHT22;16639;51.488;0.152;2022-11-20T11:57:45;9.50;99.90
29731;DHT22;16639;51.488;0.152;2022-11-20T12:00:21;9.50;99.90
29731;DHT22;16639;51.488;0.152;2022-11-20T12:03:03;9.50;99.90
29731;DHT22;16639;51.488;0.152;2022-11-20T12:05:42;9.50;99.90
29731;DHT22;16639;51.488;0.152;2022-11-20T12:10:45;9.50;99.90
29731;DHT22;16639;51.488;0.152;2022-11-20T12:13:47;9.50;99.90
29731;DHT22;16639;51.488;0.152;2022-11-20T12:16:17;9.50;99.90
29731;DHT22;16639;51.488;0.152;2022-11-20T12:18:51;9.60;99.90
29731;DHT22;16639;51.488;0.152;2022-11-20T12:21:32;9.60;99.90
29731;DHT22;16639;51.488;0.152;2022-11-20T12:30:03;9.60;99.90
29731;DHT22;16639;51.488;0.152;2022-11-20T12:44:55;9.80;99.90
29731;DHT22;16639;51.488;0.152;2022-11-20T12:50:24;9.80;99.90
29731;DHT22;16639;51.488;0.152;2022-11-20T12:52:57;9.90;99.90
29731;DHT22;16639;51.488;0.152;2022-11-20T12:59:12;10.10;99.90
29731;DHT22;16639;51.488;0.152;2022-11-20T13:01:48;10.10;99.90
29731;DHT22;16639;51.488;0.152;2022-11-20T13:07:06;10.00;99.90
29731;DHT22;16639;51.488;0.152;2022-11-20T13:09:40;10.00;99.90
29731;DHT22;16639;51.488;0.152;2022-11-20T13:12:13;9.50;99.90
29731;DHT22;16639;51.488;0.152;2022-11-20T13:17:40;11.60;99.90
29731;DHT22;16639;51.488;0.152;2022-11-20T13:20:15;10.10;99.90
29731;DHT22;16639;51.488;0.152;2022-11-20T13:22:48;10.30;99.90
29731;DHT22;16639;51.488;0.152;2022-11-20T13:25:38;10.10;99.90
29731;DHT22;16639;51.488;0.152;2022-11-20T13:30:48;10.00;99.90
29731;DHT22;16639;51.488;0.152;2022-11-20T13:36:07;10.10;99.90
29731;DHT22;16639;51.488;0.152;2022-11-20T13:38:47;10.10;99.90
29731;DHT22;16639;51.488;0.152;2022-11-20T13:46:46;10.20;99.90
29731;DHT22;16639;51.488;0.152;2022-11-20T13:49:33;10.20;99.90
29731;DHT22;16639;51.488;0.152;2022-11-20T14:00:28;10.20;99.90
29731;DHT22;16639;51.488;0.152;2022-11-20T14:03:20;10.20;99.90
29731;DHT22;16639;51.488;0.152;2022-11-20T14:06:19;10.30;99.90
29731;DHT22;16639;51.488;0.152;2022-11-20T14:08:52;10.20;99.90
29731;DHT22;16639;51.488;0.152;2022-11-20T14:11:21;10.30;99.90
29731;DHT22;16639;51.488;0.152;2022-11-20T14:14:02;10.40;99.90
29731;DHT22;16639;51.488;0.152;2022-11-20T14:16:33;10.30;99.90
29731;DHT22;16639;51.488;0.152;2022-11-20T14:19:33;10.10;99.90
29731;DHT22;16639;51.488;0.152;2022-11-20T14:24:44;10.30;99.90
29731;DHT22;16639;51.488;0.152;2022-11-20T14:27:20;10.20;99.90
29731;DHT22;16639;51.488;0.152;2022-11-20T14:29:49;10.30;99.90
29731;DHT22;16639;51.488;0.152;2022-11-20T14:32:22;11.00;99.90
29731;DHT22;16639;51.488;0.152;2022-11-20T14:34:51;10.30;99.90
29731;DHT22;16639;51.488;0.152;2022-11-20T14:37:21;10.20;99.90
29731;DHT22;16639;51.488;0.152;2022-11-20T14:39:54;10.30;99.90
29731;DHT22;16639;51.488;0.152;2022-11-20T14:42:25;10.20;99.90
29731;DHT22;16639;51.488;0.152;2022-11-20T14:44:57;10.20;99.90
29731;DHT22;16639;51.488;0.152;2022-11-20T14:47:29;10.20;99.90
29731;DHT22;16639;51.488;0.152;2022-11-20T14:49:58;10.30;99.90
29731;DHT22;16639;51.488;0.152;2022-11-20T14:52:31;10.30;99.90
29731;DHT22;16639;51.488;0.152;2022-11-20T14:54:59;10.30;99.90
29731;DHT22;16639;51.488;0.152;2022-11-20T14:57:31;10.30;99.90
29731;DHT22;16639;51.488;0.152;2022-11-20T15:00:22;10.30;99.90
29731;DHT22;16639;51.488;0.152;2022-11-20T15:02:51;10.30;99.90
29731;DHT22;16639;51.488;0.152;2022-11-20T15:05:26;10.30;99.90
29731;DHT22;16639;51.488;0.152;2022-11-20T15:08:08;10.30;99.90
29731;DHT22;16639;51.488;0.152;2022-11-20T15:10:36;10.30;99.90
29731;DHT22;16639;51.488;0.152;2022-11-20T15:13:15;10.30;99.90
29731;DHT22;16639;51.488;0.152;2022-11-20T15:15:46;10.30;99.90
29731;DHT22;16639;51.488;0.152;2022-11-20T15:20:50;10.20;99.90
29731;DHT22;16639;51.488;0.152;2022-11-20T15:23:18;9.90;99.90
29731;DHT22;16639;51.488;0.152;2022-11-20T15:25:47;10.30;99.90
29731;DHT22;16639;51.488;0.152;2022-11-20T15:28:29;10.30;99.90
29731;DHT22;16639;51.488;0.152;2022-11-20T15:30:57;10.40;99.90
29731;DHT22;16639;51.488;0.152;2022-11-20T15:33:24;10.20;99.90
29731;DHT22;16639;51.488;0.152;2022-11-20T15:35:52;10.50;99.90
29731;DHT22;16639;51.488;0.152;2022-11-20T15:38:19;10.10;99.90
29731;DHT22;16639;51.488;0.152;2022-11-20T15:40:47;10.10;99.90
29731;DHT22;16639;51.488;0.152;2022-11-20T15:43:14;10.10;99.90
29731;DHT22;16639;51.488;0.152;2022-11-20T15:45:47;10.40;99.90
29731;DHT22;16639;51.488;0.152;2022-11-20T15:48:20;10.00;99.90
29731;DHT22;16639;51.488;0.152;2022-11-20T15:51:21;10.00;99.90
29731;DHT22;16639;51.488;0.152;2022-11-20T15:53:50;10.50;99.90
29731;DHT22;16639;51.488;0.152;2022-11-20T15:56:17;9.90;99.90
29731;DHT22;16639;51.488;0.152;2022-11-20T15:58:45;9.90;99.90
29731;DHT22;16639;51.488;0.152;2022-11-20T16:01:14;9.80;99.90
29731;DHT22;16639;51.488;0.152;2022-11-20T16:03:43;9.80;99.90
29731;DHT22;16639;51.488;0.152;2022-11-20T16:06:10;9.90;99.90
29731;DHT22;16639;51.488;0.152;2022-11-20T16:08:39;10.00;99.90
29731;DHT22;16639;51.488;0.152;2022-11-20T16:11:06;9.70;99.90
29731;DHT22;16639;51.488;0.152;2022-11-20T16:13:33;9.80;99.90
29731;DHT22;16639;51.488;0.152;2022-11-20T16:16:21;9.70;99.90
29731;DHT22;16639;51.488;0.152;2022-11-20T16:18:49;9.70;99.90
29731;DHT22;16639;51.488;0.152;2022-11-20T16:21:17;9.50;99.90
29731;DHT22;16639;51.488;0.152;2022-11-20T16:23:44;9.50;99.90
29731;DHT22;16639;51.488;0.152;2022-11-20T16:26:13;9.40;99.90
29731;DHT22;16639;51.488;0.152;2022-11-20T16:28:40;9.40;99.90
29731;DHT22;16639;51.488;0.152;2022-11-20T16:31:09;9.20;99.90
29731;DHT22;16639;51.488;0.152;2022-11-20T16:33:37;9.20;99.90
29731;DHT22;16639;51.488;0.152;2022-11-20T16:36:14;9.10;99.90
29731;DHT22;16639;51.488;0.152;2022-11-20T16:38:42;9.00;99.90
29731;DHT22;16639;51.488;0.152;2022-11-20T16:41:09;9.10;99.90
29731;DHT22;16639;51.488;0.152;2022-11-20T16:43:51;9.10;99.90
29731;DHT22;16639;51.488;0.152;2022-11-20T16:46:21;9.10;99.90
29731;DHT22;16639;51.488;0.152;2022-11-20T16:48:56;9.10;99.90
29731;DHT22;16639;51.488;0.152;2022-11-20T16:51:25;9.10;99.90
29731;DHT22;16639;51.488;0.152;2022-11-20T16:53:53;9.00;99.90
29731;DHT22;16639;51.488;0.152;2022-11-20T16:56:24;9.00;99.90
29731;DHT22;16639;51.488;0.152;2022-11-20T16:58:55;9.00;99.90
29731;DHT22;16639;51.488;0.152;2022-11-20T17:01:23;9.00;99.90
29731;DHT22;16639;51.488;0.152;2022-11-20T17:04:00;9.00;99.90
29731;DHT22;16639;51.488;0.152;2022-11-20T17:06:32;8.90;99.90
29731;DHT22;16639;51.488;0.152;2022-11-20T17:09:00;9.00;99.90
29731;DHT22;16639;51.488;0.152;2022-11-20T17:11:28;9.00;99.90
29731;DHT22;16639;51.488;0.152;2022-11-20T17:13:57;9.00;99.90
29731;DHT22;16639;51.488;0.152;2022-11-20T17:16:26;9.00;99.90
29731;DHT22;16639;51.488;0.152;2022-11-20T17:18:55;9.00;99.90
29731;DHT22;16639;51.488;0.152;2022-11-20T17:21:30;8.90;99.90
29731;DHT22;16639;51.488;0.152;2022-11-20T17:24:02;9.00;99.90
29731;DHT22;16639;51.488;0.152;2022-11-20T17:26:30;9.10;99.90
29731;DHT22;16639;51.488;0.152;2022-11-20T17:28:59;9.00;99.90
29731;DHT22;16639;51.488;0.152;2022-11-20T17:31:28;9.00;99.90
29731;DHT22;16639;51.488;0.152;2022-11-20T17:33:56;9.00;99.90
29731;DHT22;16639;51.488;0.152;2022-11-20T17:36:27;8.90;99.90
29731;DHT22;16639;51.488;0.152;2022-11-20T17:38:54;8.90;99.90
29731;DHT22;16639;51.488;0.152;2022-11-20T17:41:23;8.90;99.90
29731;DHT22;16639;51.488;0.152;2022-11-20T17:43:59;8.70;99.90
29731;DHT22;16639;51.488;0.152;2022-11-20T17:46:29;8.80;99.90
29731;DHT22;16639;51.488;0.152;2022-11-20T17:48:59;8.60;99.90
29731;DHT22;16639;51.488;0.152;2022-11-20T17:51:31;8.70;99.90
29731;DHT22;16639;51.488;0.152;2022-11-20T17:54:00;8.60;99.90